Latest Weather Observations for Stenhouse Bay

IDS60801

Issued at 9:31 pm CST Saturday 22 June 2024 (issued every 10 minutes, with the page automatically refreshed every 10 minutes)

About weather observations | Map of weather stations | Latest weather observations for SA | Other Formats
Station Details ID: 022049 Name: STENHOUSE BAY Lat: -35.28 Lon: 136.94 Height: 42.0 m
Data from the previous 72 hours. | See also: Recent months at Stenhouse Bay
Date/Time
CST
Temp
°C
App
Temp
°C
Dew
Point
°C
Rel
Hum
%
Delta-T
°C
Wind Press
QNH
hPa
Press
MSL
hPa
Rain since
9am
mm
Dir  Spd
km/h
Gust
km/h
Spd
kts
Gust
kts
22/09:00pm 8.0 5.1 4.4 78 1.6 NNE 9 13 5 7 1027.7 1027.8 0.0
22/08:30pm 9.8 6.4 5.8 76 1.8 NNE 13 17 7 9 1028.0 1028.1 0.0
22/08:00pm 10.6 7.2 6.0 73 2.1 NNE 13 17 7 9 1028.1 1028.2 0.0
22/07:30pm 12.1 8.8 6.6 69 2.6 NE 13 17 7 9 1028.1 1028.2 0.0
22/07:00pm 12.3 8.7 6.8 69 2.6 NE 15 20 8 11 1028.2 1028.3 0.0
22/06:30pm 12.5 8.6 7.2 70 2.5 ENE 17 20 9 11 1028.0 1028.1 0.0
22/06:00pm 12.3 9.0 8.0 75 2.1 NE 15 20 8 11 1027.9 1028.0 0.0
22/05:30pm 12.4 9.1 7.9 74 2.2 ENE 15 19 8 10 1027.8 1027.9 0.0
22/05:00pm 12.5 9.5 7.8 73 2.3 ENE 13 17 7 9 1027.8 1027.9 0.0
22/04:30pm 12.6 9.9 7.3 70 2.6 E 11 15 6 8 1027.9 1028.0 0.0
22/04:00pm 12.9 10.4 8.2 73 2.3 E 11 15 6 8 1027.9 1028.0 0.0
22/03:30pm 12.8 10.6 7.9 72 2.4 ENE 9 15 5 8 1028.1 1028.2 0.0
22/03:00pm 13.2 11.0 7.9 70 2.6 ENE 9 13 5 7 1028.3 1028.4 0.0
22/02:30pm 13.0 11.1 7.7 70 2.6 NE 7 11 4 6 1028.5 1028.6 0.0
22/02:00pm 12.8 10.1 7.3 69 2.7 ENE 11 15 6 8 1028.9 1029.0 0.0
22/01:30pm 12.8 9.5 8.1 73 2.3 E 15 20 8 11 1029.2 1029.3 0.0
22/01:00pm 13.5 9.6 8.6 72 2.5 E 19 26 10 14 1029.5 1029.6 0.0
22/12:30pm 14.1 11.3 5.2 55 4.1 E 9 13 5 7 1030.1 1030.1 0.0
22/12:00pm 14.5 12.2 5.0 53 4.4 ENE 6 9 3 5 1030.6 1030.6 0.0
22/11:30am 15.2 12.6 4.3 48 5.0 N 7 15 4 8 1031.2 1031.2 0.0
22/11:00am 13.9 11.0 4.8 54 4.2 NE 9 11 5 6 1031.5 1031.5 0.0
22/10:30am 14.4 11.2 5.2 54 4.3 N 11 15 6 8 1031.7 1031.7 0.0
22/10:00am 13.0 10.7 4.9 58 3.7 N 6 9 3 5 1031.9 1031.9 0.0
22/09:30am 12.9 10.0 4.8 58 3.7 N 9 11 5 6 1031.8 1031.8 0.0
22/09:00am 13.0 11.2 5.4 60 3.5 N 4 7 2 4 1031.7 1031.7 0.0
22/08:30am 11.3 8.9 4.5 63 3.0 NNW 6 7 3 4 1031.6 1031.6 0.0
22/08:00am 9.5 7.4 4.1 69 2.4 NW 4 6 2 3 1031.4 1031.4 0.0
22/07:30am 9.2 7.5 3.8 69 2.3 NNW 2 4 1 2 1031.1 1031.1 0.0
22/07:00am 9.4 7.4 4.4 71 2.2 NNW 4 6 2 3 1031.0 1031.0 0.0
22/06:30am 9.8 8.6 4.4 69 2.4 CALM 0 0 0 0 1030.7 1030.7 0.0
22/06:00am 10.0 7.9 4.0 66 2.6 NW 4 6 2 3 1030.6 1030.6 0.0
22/05:30am 11.6 8.3 4.3 61 3.3 E 11 17 6 9 1030.5 1030.5 0.0
22/05:00am 11.4 8.1 4.6 63 3.1 E 11 15 6 8 1030.4 1030.4 0.0
22/04:30am 11.5 7.5 4.9 64 3.0 ESE 15 20 8 11 1030.3 1030.3 0.0
22/04:00am 11.9 7.5 4.6 61 3.3 E 17 22 9 12 1030.4 1030.4 0.0
22/03:30am 11.9 7.8 4.6 61 3.3 ESE 15 20 8 11 1030.4 1030.4 0.0
22/03:00am 12.4 8.3 4.4 58 3.6 ESE 15 19 8 10 1030.4 1030.4 0.0
22/02:30am 12.7 8.4 5.1 60 3.5 ESE 17 22 9 12 1030.4 1030.4 0.0
22/02:00am 12.7 9.0 6.3 65 3.0 ESE 15 20 8 11 1030.3 1030.3 0.0
22/01:30am 12.9 10.2 7.4 69 2.7 E 11 15 6 8 1030.2 1030.2 0.0
22/01:00am 12.6 10.5 8.1 74 2.2 E 9 15 5 8 1030.1 1030.1 0.0
22/12:30am 12.6 10.1 8.3 75 2.1 E 11 19 6 10 1030.1 1030.1 0.0
22/12:00am 11.8 9.2 7.7 76 2.0 ESE 11 13 6 7 1030.2 1030.2 0.0
 
Date/Time
CST
Temp
°C
App
Temp
°C
Dew
Point
°C
Rel
Hum
%
Delta-T
°C
Wind Press
QNH
hPa
Press
MSL
hPa
Rain since
9am
mm
Dir  Spd
km/h
Gust
km/h
Spd
kts
Gust
kts
21/11:30pm 12.0 9.4 7.7 75 2.1 ESE 11 15 6 8 1030.3 1030.3 0.0
21/11:00pm 12.5 9.2 8.0 74 2.2 ESE 15 19 8 10 1030.2 1030.2 0.0
21/10:30pm 12.8 10.6 9.3 79 1.8 ESE 11 15 6 8 1030.2 1030.2 0.0
21/10:00pm 12.8 10.1 8.9 77 2.0 SE 13 17 7 9 1030.2 1030.2 0.0
21/09:30pm 13.0 9.3 9.3 78 1.9 SSE 19 22 10 12 1029.9 1030.0 0.0
21/09:00pm 12.9 8.8 8.8 76 2.0 SSE 20 26 11 14 1029.9 1030.0 0.0
21/08:30pm 12.9 9.4 8.6 75 2.1 SSE 17 24 9 13 1029.7 1029.8 0.0
21/08:00pm 13.1 8.9 7.5 69 2.7 SSE 19 24 10 13 1029.4 1029.5 0.0
21/07:30pm 13.2 8.3 7.0 66 3.0 S 22 28 12 15 1029.0 1029.1 0.0
21/07:00pm 13.4 8.1 6.7 64 3.2 S 24 30 13 16 1028.8 1028.9 0.0
21/06:30pm 13.5 8.6 7.1 65 3.1 S 22 30 12 16 1028.3 1028.4 0.0
21/06:00pm 13.5 9.5 6.6 63 3.3 SSW 17 20 9 11 1028.0 1028.1 0.0
21/05:30pm 13.5 9.4 6.1 61 3.5 S 17 19 9 10 1027.7 1027.8 0.0
21/05:00pm 13.8 9.7 6.2 60 3.6 S 17 22 9 12 1027.5 1027.5 0.0
21/04:30pm 14.2 10.2 6.8 61 3.6 SSW 17 24 9 13 1027.4 1027.4 0.0
21/04:00pm 14.6 11.2 5.7 55 4.2 SSW 13 19 7 10 1027.1 1027.1 0.0
21/03:30pm 15.0 11.4 6.6 57 4.1 S 15 22 8 12 1026.9 1026.9 0.0
21/03:00pm 15.2 10.9 7.0 58 4.0 S 19 24 10 13 1026.8 1026.8 0.0
21/02:30pm 15.9 12.9 7.9 59 4.0 S 13 22 7 12 1026.8 1026.8 0.0
21/02:00pm 15.6 11.4 7.6 59 4.0 S 19 22 10 12 1026.9 1026.9 0.0
21/01:30pm 15.8 12.5 8.1 60 3.9 S 15 20 8 11 1026.9 1026.9 0.0
21/01:00pm 15.9 12.7 8.6 62 3.7 S 15 20 8 11 1026.9 1026.9 0.0
21/12:30pm 15.6 12.1 8.8 64 3.5 SSE 17 20 9 11 1027.0 1027.0 0.0
21/12:00pm 15.2 11.4 8.9 66 3.2 SSE 19 22 10 12 1027.0 1027.0 0.0
21/11:30am 14.7 10.5 8.4 66 3.2 SSE 20 26 11 14 1027.1 1027.1 0.0
21/11:00am 14.8 10.9 9.6 71 2.7 SSE 20 26 11 14 1027.0 1027.0 0.0
21/10:30am 14.6 9.5 9.2 70 2.7 SSE 26 32 14 17 1026.9 1026.9 0.0
21/10:00am 14.5 9.5 9.7 73 2.5 SSE 26 32 14 17 1026.8 1026.8 0.0
21/09:30am 14.1 9.0 9.3 73 2.4 SSE 26 33 14 18 1026.6 1026.6 0.0
21/09:00am 13.6 8.3 9.8 78 1.9 SSE 28 33 15 18 1026.1 1026.1 0.0
21/08:30am 13.2 8.7 10.0 81 1.6 SSE 24 32 13 17 1025.8 1025.8 0.0
21/08:00am 13.1 10.3 10.1 82 1.5 S 15 20 8 11 1025.2 1025.2 0.0
21/07:30am 12.6 10.6 10.0 84 1.3 S 11 13 6 7 1024.9 1024.9 0.0
21/07:00am 11.8 9.6 9.4 85 1.2 S 11 15 6 8 1024.4 1024.4 0.0
21/06:30am 12.0 10.2 9.6 85 1.2 SE 9 15 5 8 1023.9 1023.9 0.0
21/06:00am 11.8 10.0 9.5 86 1.2 SSE 9 13 5 7 1023.4 1023.4 0.0
21/05:30am 11.5 10.1 9.4 87 1.1 SE 7 9 4 5 1023.0 1023.0 0.0
21/05:00am 11.7 9.9 9.4 86 1.2 SSE 9 13 5 7 1022.7 1022.7 0.0
21/04:30am 11.7 9.5 9.4 86 1.2 SSE 11 13 6 7 1022.3 1022.3 0.0
21/04:00am 11.8 9.6 9.2 84 1.3 SSE 11 15 6 8 1022.1 1022.1 0.0
21/03:30am 12.2 9.3 9.6 84 1.3 SSE 15 19 8 10 1022.1 1022.1 0.0
21/03:00am 12.1 9.2 9.5 84 1.3 SSE 15 20 8 11 1021.8 1021.8 0.0
21/02:30am 11.9 9.3 9.5 85 1.2 SE 13 19 7 10 1021.6 1021.6 0.0
21/02:00am 12.0 9.5 9.6 85 1.2 SE 13 17 7 9 1021.3 1021.3 0.0
21/01:30am 12.2 9.7 9.6 84 1.3 SE 13 19 7 10 1020.9 1020.9 0.0
21/01:00am 12.5 8.9 9.7 83 1.4 SSE 19 24 10 13 1020.8 1020.8 0.0
21/12:30am 12.8 8.7 10.2 84 1.3 SSE 22 28 12 15 1020.6 1020.6 0.0
21/12:00am 12.7 7.7 9.7 82 1.5 SSE 26 30 14 16 1020.4 1020.4 0.0
 
Date/Time
CST
Temp
°C
App
Temp
°C
Dew
Point
°C
Rel
Hum
%
Delta-T
°C
Wind Press
QNH
hPa
Press
MSL
hPa
Rain since
9am
mm
Dir  Spd
km/h
Gust
km/h
Spd
kts
Gust
kts
20/11:30pm 12.8 8.9 9.3 79 1.8 SSE 20 26 11 14 1020.1 1020.1 0.0
20/11:00pm 12.7 9.0 10.1 84 1.3 SSE 20 26 11 14 1020.1 1020.1 0.0
20/10:30pm 12.7 8.9 9.9 83 1.4 SSE 20 26 11 14 1019.6 1019.6 0.0
20/10:00pm 12.9 9.2 9.4 79 1.8 SSE 19 22 10 12 1019.4 1019.4 0.0
20/09:30pm 12.9 9.2 9.5 80 1.7 SSE 19 22 10 12 1019.1 1019.1 0.0
20/09:00pm 12.9 9.6 9.7 81 1.6 SSE 17 22 9 12 1018.8 1018.8 0.0
20/08:30pm 12.7 9.1 9.7 82 1.5 SSE 19 24 10 13 1018.6 1018.6 0.0
20/08:00pm 12.4 10.6 9.6 83 1.4 SSE 9 13 5 7 1018.2 1018.2 0.0
20/07:30pm 11.7 10.2 9.3 85 1.2 SE 7 11 4 6 1017.8 1017.8 0.0
20/07:00pm 11.4 9.9 9.0 85 1.2 SE 7 11 4 6 1017.4 1017.4 0.0
20/06:30pm 11.4 9.4 8.8 84 1.3 ESE 9 11 5 6 1016.7 1016.7 0.0
20/06:00pm 11.6 9.2 8.8 83 1.4 ESE 11 13 6 7 1016.2 1016.2 0.0
20/05:30pm 11.8 9.5 9.0 83 1.4 E 11 13 6 7 1015.6 1015.6 0.0
20/05:00pm 12.3 9.6 9.1 81 1.6 ESE 13 17 7 9 1015.3 1015.3 0.0
20/04:30pm 12.8 9.3 8.9 77 2.0 E 17 20 9 11 1014.8 1014.8 0.0
20/04:00pm 13.3 10.0 9.4 77 2.0 E 17 22 9 12 1014.2 1014.2 0.0
20/03:30pm 13.7 10.0 9.4 75 2.2 ESE 19 24 10 13 1013.7 1013.7 0.0
20/03:00pm 13.6 9.2 9.1 74 2.3 ESE 22 28 12 15 1013.3 1013.3 0.0
20/02:30pm 13.8 10.5 9.5 75 2.2 SE 17 26 9 14 1012.7 1012.7 0.0
20/02:00pm 13.7 9.5 9.6 76 2.1 SE 22 30 12 16 1012.2 1012.2 0.0
20/01:30pm 14.0 9.9 10.2 78 2.0 ESE 22 28 12 15 1011.9 1011.9 0.0
20/01:00pm 13.1 9.0 10.1 82 1.5 ESE 22 28 12 15 1011.7 1011.7 0.0
20/12:30pm 12.7 8.6 10.1 84 1.3 E 22 32 12 17 1011.8 1011.8 0.0
20/12:00pm 12.7 8.6 10.2 85 1.3 ENE 22 30 12 16 1011.3 1011.3 0.0
20/11:30am 12.7 8.8 10.8 88 1.0 ENE 22 28 12 15 1011.2 1011.2 0.0
20/11:00am 13.4 9.9 10.9 85 1.3 E 20 32 11 17 1011.1 1011.1 0.0
20/10:30am 12.9 9.7 11.1 89 0.9 ENE 19 26 10 14 1010.7 1010.7 0.0
20/10:00am 12.3 9.0 11.0 92 0.7 ENE 19 26 10 14 1010.2 1010.2 0.0
20/09:30am 11.7 7.4 10.9 95 0.4 NE 24 30 13 16 1009.5 1009.5 0.0
20/09:00am 10.8 6.7 10.0 95 0.4 NE 22 30 12 16 1009.2 1009.2 11.2
20/08:30am 10.4 6.1 9.5 94 0.5 NE 22 28 12 15 1008.8 1008.8 11.2
20/08:00am 10.2 6.8 9.1 93 0.5 NNE 17 24 9 13 1008.6 1008.6 10.8
20/07:30am 10.2 6.1 8.6 90 0.8 N 20 28 11 15 1008.2 1008.1 10.6
20/07:00am 10.1 6.4 8.0 87 1.0 N 17 24 9 13 1008.1 1008.0 10.6
20/06:30am 10.4 6.1 8.0 85 1.2 N 20 30 11 16 1007.9 1007.8 10.6
20/06:00am 10.5 5.8 7.9 84 1.3 N 22 33 12 18 1007.6 1007.5 10.6
20/05:30am 10.4 6.1 8.0 85 1.2 NNW 20 28 11 15 1007.7 1007.6 10.6
20/05:00am 10.3 6.3 8.1 86 1.1 N 19 24 10 13 1007.8 1007.7 10.6
20/04:30am 10.6 5.7 8.4 86 1.1 NW 24 35 13 19 1008.2 1008.1 10.6
20/04:00am 10.7 6.4 7.8 82 1.4 NNW 20 30 11 16 1008.2 1008.1 10.6
20/03:30am 10.5 6.1 7.6 82 1.4 NNW 20 26 11 14 1008.4 1008.3 10.6
20/03:00am 11.2 5.8 7.9 80 1.6 NNW 26 35 14 19 1008.5 1008.5 10.6
20/02:30am 10.3 6.6 8.1 86 1.1 NNW 17 22 9 12 1008.9 1008.9 10.6
20/02:00am 10.5 6.1 7.2 80 1.6 NW 20 28 11 15 1008.6 1008.6 10.6
20/01:30am 10.6 5.5 7.8 83 1.4 NW 24 37 13 20 1008.9 1008.9 10.6
20/01:00am 10.9 5.9 8.0 82 1.4 WNW 24 33 13 18 1008.8 1008.8 10.6
20/12:30am 10.7 6.4 7.9 83 1.4 NW 20 28 11 15 1009.1 1009.1 10.6
20/12:00am 10.9 6.4 8.5 85 1.2 NW 22 32 12 17 1009.2 1009.2 10.6
 
Date/Time
CST
Temp
°C
App
Temp
°C
Dew
Point
°C
Rel
Hum
%
Delta-T
°C
Wind Press
QNH
hPa
Press
MSL
hPa
Rain since
9am
mm
Dir  Spd
km/h
Gust
km/h
Spd
kts
Gust
kts
19/11:30pm 10.5 6.3 8.4 87 1.0 NW 20 28 11 15 1009.4 1009.4 10.6
19/11:00pm 10.6 5.8 8.7 88 0.9 NW 24 33 13 18 1009.4 1009.4 10.6
19/10:30pm 10.9 7.1 9.7 92 0.6 NW 20 28 11 15 1009.7 1009.7 10.6
19/10:00pm 10.4 6.0 9.0 91 0.7 NW 22 33 12 18 1009.9 1009.9 10.4

Other formats

Comma delimited format used in spreadsheet applications
http://www.bom.gov.au/fwo/IDS60801/IDS60801.95806.axf

JavaScript Object Notation format (JSON) in row-major order
http://www.bom.gov.au/fwo/IDS60801/IDS60801.95806.json

Data quality

Most of these data are generated automatically and are frequently updated. Quality checks on data are not normally performed. It is possible for incorrect values to appear. Refer to information at About Latest Weather Observations and please check the disclaimer before using these data.